Time;durP1;ratioP1;P1;durP2;ratioP2;P2;SDS_P1;SDS_P2;PMS_P1;PMS_P2;Temp;Humidity;BMP_temperature;BMP_pressure;BME280_temperature;BME280_humidity;BME280_pressure;Samples;Min_cycle;Max_cycle;Signal;HPM_P1;HPM_P2
2023/12/20 00:01:43;;;;;;;19.75;12.18;;;;;;;;;;4873585;29;20067;-80
2023/12/20 00:04:11;;;;;;;15.55;7.43;;;;;;;;;;4868717;29;20521;-77
2023/12/20 00:06:38;;;;;;;13.73;7.45;;;;;;;;;;4872502;29;20132;-77
2023/12/20 00:09:06;;;;;;;11.93;7.05;;;;;;;;;;4868771;29;20167;-77
2023/12/20 00:11:33;;;;;;;12.65;6.60;;;;;;;;;;4872931;29;20044;-77
2023/12/20 00:14:02;;;;;;;13.55;7.00;;;;;;;;;;4873047;29;20033;-77
2023/12/20 00:16:31;;;;;;;14.88;7.35;;;;;;;;;;4871771;29;20040;-77
2023/12/20 00:18:58;;;;;;;14.13;8.95;;;;;;;;;;4873797;29;20041;-78
2023/12/20 00:21:24;;;;;;;15.52;8.57;;;;;;;;;;4871667;29;20044;-77
2023/12/20 00:23:51;;;;;;;15.13;8.52;;;;;;;;;;4872536;29;20057;-77
2023/12/20 00:26:20;;;;;;;15.10;9.80;;;;;;;;;;4865730;29;20037;-77
2023/12/20 00:28:47;;;;;;;18.27;13.07;;;;;;;;;;4874405;29;20068;-77
2023/12/20 00:31:15;;;;;;;16.13;10.85;;;;;;;;;;4870900;29;20135;-78
2023/12/20 00:33:43;;;;;;;17.08;11.63;;;;;;;;;;4872459;29;20024;-77
2023/12/20 00:36:10;;;;;;;16.80;11.00;;;;;;;;;;4868038;29;20115;-77
2023/12/20 00:38:37;;;;;;;16.08;11.23;;;;;;;;;;4873048;29;20028;-77
2023/12/20 00:41:05;;;;;;;19.00;12.57;;;;;;;;;;4868252;29;20076;-78
2023/12/20 00:43:31;;;;;;;19.35;13.10;;;;;;;;;;4874366;29;20033;-78
2023/12/20 00:46:00;;;;;;;15.68;10.50;;;;;;;;;;4871722;29;20092;-76
2023/12/20 00:48:30;;;;;;;15.90;10.00;;;;;;;;;;4883472;29;20423;-76
2023/12/20 00:50:56;;;;;;;13.85;9.10;;;;;;;;;;4872756;29;20065;-76
2023/12/20 00:53:23;;;;;;;16.80;10.38;;;;;;;;;;4870265;29;20043;-76
2023/12/20 00:55:50;;;;;;;14.15;9.98;;;;;;;;;;4871722;29;20063;-75
2023/12/20 00:58:17;;;;;;;15.30;9.00;;;;;;;;;;4870545;29;20120;-78
2023/12/20 01:00:43;;;;;;;17.63;11.82;;;;;;;;;;4871806;29;20176;-76
2023/12/20 01:03:10;;;;;;;17.17;11.23;;;;;;;;;;4867554;29;20063;-76
2023/12/20 01:05:38;;;;;;;16.42;10.80;;;;;;;;;;4872294;29;20510;-76
2023/12/20 01:08:05;;;;;;;16.50;10.38;;;;;;;;;;4878820;29;20029;-77
2023/12/20 01:10:32;;;;;;;17.27;11.20;;;;;;;;;;4872901;29;20032;-77
2023/12/20 01:12:58;;;;;;;18.00;11.30;;;;;;;;;;4871596;29;20037;-77
2023/12/20 01:15:24;;;;;;;13.70;8.07;;;;;;;;;;4869786;29;20036;-77
2023/12/20 01:17:51;;;;;;;12.80;7.72;;;;;;;;;;4870913;29;20096;-77
2023/12/20 01:20:20;;;;;;;13.30;8.40;;;;;;;;;;4885794;29;20033;-77
2023/12/20 01:22:47;;;;;;;15.60;9.52;;;;;;;;;;4887687;29;20399;-77
2023/12/20 01:25:14;;;;;;;15.00;9.43;;;;;;;;;;4868447;29;20063;-77
2023/12/20 01:27:42;;;;;;;14.80;8.25;;;;;;;;;;4869288;29;20464;-77
2023/12/20 01:30:10;;;;;;;11.50;5.72;;;;;;;;;;4868817;29;20037;-77
2023/12/20 01:32:39;;;;;;;10.77;5.47;;;;;;;;;;4871591;29;20040;-77
2023/12/20 01:35:06;;;;;;;9.68;4.35;;;;;;;;;;4870447;29;20024;-76
2023/12/20 01:37:34;;;;;;;9.30;4.18;;;;;;;;;;4875066;29;20112;-77
2023/12/20 01:40:00;;;;;;;8.70;3.90;;;;;;;;;;4872567;29;20269;-76
2023/12/20 01:42:27;;;;;;;8.80;3.97;;;;;;;;;;4868159;29;20623;-76
2023/12/20 01:44:53;;;;;;;8.60;3.55;;;;;;;;;;4871472;29;20531;-76
2023/12/20 01:47:22;;;;;;;8.38;3.72;;;;;;;;;;4867352;29;20037;-78
2023/12/20 01:49:49;;;;;;;8.45;3.70;;;;;;;;;;4873171;29;20047;-76
2023/12/20 01:52:21;;;;;;;8.80;3.70;;;;;;;;;;4867259;29;20044;-75
2023/12/20 01:54:49;;;;;;;9.45;3.95;;;;;;;;;;4872667;29;20032;-76
2023/12/20 01:57:19;;;;;;;7.72;3.08;;;;;;;;;;4868037;29;20043;-75
2023/12/20 01:59:46;;;;;;;6.18;2.35;;;;;;;;;;4888544;29;20104;-75
2023/12/20 02:02:13;;;;;;;6.25;2.70;;;;;;;;;;4876370;29;20059;-75
2023/12/20 02:04:40;;;;;;;7.28;2.60;;;;;;;;;;4876236;29;20055;-76
2023/12/20 02:07:08;;;;;;;6.07;2.22;;;;;;;;;;4877052;29;20036;-75
2023/12/20 02:09:34;;;;;;;7.78;2.50;;;;;;;;;;4877065;29;20091;-75
2023/12/20 02:12:00;;;;;;;6.28;2.28;;;;;;;;;;4878497;29;20266;-75
2023/12/20 02:14:28;;;;;;;;;;;;;;;;;;4907636;29;20063;-75
2023/12/20 02:16:55;;;;;;;6.30;2.38;;;;;;;;;;4915028;29;19942;-75
2023/12/20 02:19:21;;;;;;;5.97;2.22;;;;;;;;;;4896530;29;20204;-75
2023/12/20 02:21:49;;;;;;;7.05;2.60;;;;;;;;;;4909773;29;20068;-75
2023/12/20 02:24:15;;;;;;;6.18;2.30;;;;;;;;;;4894704;29;20046;-75
2023/12/20 02:26:41;;;;;;;6.63;2.40;;;;;;;;;;4896277;29;20060;-77
2023/12/20 02:29:09;;;;;;;7.20;2.03;;;;;;;;;;4896296;29;21153;-72
2023/12/20 02:31:36;;;;;;;5.35;1.92;;;;;;;;;;4900400;29;20028;-76
2023/12/20 02:34:03;;;;;;;5.25;2.10;;;;;;;;;;4897804;29;20931;-76
2023/12/20 02:36:29;;;;;;;5.28;1.95;;;;;;;;;;4914407;29;20067;-76
2023/12/20 02:38:55;;;;;;;7.68;1.80;;;;;;;;;;4912978;29;20059;-76
2023/12/20 02:41:22;;;;;;;6.72;2.20;;;;;;;;;;4905746;29;20072;-76
2023/12/20 02:43:48;;;;;;;5.35;2.10;;;;;;;;;;4912381;29;20114;-76
2023/12/20 02:46:15;;;;;;;;;;;;;;;;;;4907234;29;20138;-76
2023/12/20 02:48:42;;;;;;;5.93;2.20;;;;;;;;;;4912837;29;19923;-76
2023/12/20 02:51:08;;;;;;;6.18;2.28;;;;;;;;;;4897430;29;20043;-76
2023/12/20 02:53:36;;;;;;;6.22;2.30;;;;;;;;;;4900601;29;20048;-76
2023/12/20 02:56:02;;;;;;;7.10;2.30;;;;;;;;;;4896993;29;20571;-76
2023/12/20 02:58:28;;;;;;;6.95;2.20;;;;;;;;;;4910632;29;20126;-76
2023/12/20 03:00:55;;;;;;;7.03;2.80;;;;;;;;;;4914206;29;20873;-76
2023/12/20 03:03:21;;;;;;;6.93;2.50;;;;;;;;;;4909868;29;20078;-76
2023/12/20 03:05:49;;;;;;;7.03;2.72;;;;;;;;;;4910880;29;20043;-76
2023/12/20 03:08:16;;;;;;;7.35;2.47;;;;;;;;;;4908915;29;20074;-76
2023/12/20 03:10:42;;;;;;;7.13;2.55;;;;;;;;;;4897656;29;20125;-76
2023/12/20 03:13:10;;;;;;;5.45;2.00;;;;;;;;;;4909327;29;20110;-75
2023/12/20 03:15:37;;;;;;;5.63;1.85;;;;;;;;;;4912508;29;20043;-76
2023/12/20 03:18:05;;;;;;;7.40;2.08;;;;;;;;;;4908040;29;20023;-74
2023/12/20 03:20:33;;;;;;;6.35;2.17;;;;;;;;;;4910015;29;20028;-75
2023/12/20 03:23:01;;;;;;;4.70;1.85;;;;;;;;;;4911743;29;20036;-74
2023/12/20 03:25:27;;;;;;;5.75;1.90;;;;;;;;;;4909559;29;20189;-76
2023/12/20 03:27:54;;;;;;;6.72;2.17;;;;;;;;;;4909098;29;20043;-77
2023/12/20 03:30:23;;;;;;;6.00;2.10;;;;;;;;;;4911518;29;20568;-75
2023/12/20 03:32:51;;;;;;;6.45;2.00;;;;;;;;;;4908091;29;20036;-76
2023/12/20 03:35:19;;;;;;;6.40;2.13;;;;;;;;;;4891723;29;20055;-74
2023/12/20 03:37:46;;;;;;;5.03;1.80;;;;;;;;;;4897497;29;20119;-77
2023/12/20 03:40:12;;;;;;;5.35;1.90;;;;;;;;;;4907367;29;20702;-76
2023/12/20 03:42:40;;;;;;;5.32;1.85;;;;;;;;;;4909215;29;20149;-76
2023/12/20 03:45:07;;;;;;;5.40;1.63;;;;;;;;;;4894979;29;20035;-74
2023/12/20 03:47:34;;;;;;;5.20;1.80;;;;;;;;;;4912274;29;20036;-75
2023/12/20 03:50:03;;;;;;;5.65;1.80;;;;;;;;;;4910280;29;20028;-75
2023/12/20 03:52:29;;;;;;;6.55;1.98;;;;;;;;;;4910790;29;20063;-74
2023/12/20 03:54:55;;;;;;;7.05;2.20;;;;;;;;;;4911588;29;20113;-74
2023/12/20 03:57:23;;;;;;;4.93;1.70;;;;;;;;;;4909412;29;20028;-75
2023/12/20 03:59:49;;;;;;;6.35;2.20;;;;;;;;;;4897660;29;20027;-75
2023/12/20 04:02:15;;;;;;;8.65;2.47;;;;;;;;;;4892632;29;20038;-74
2023/12/20 04:04:42;;;;;;;6.90;2.50;;;;;;;;;;4910450;29;20161;-78
2023/12/20 04:07:10;;;;;;;8.00;2.88;;;;;;;;;;4904080;29;20090;-75
2023/12/20 04:09:37;;;;;;;7.20;2.53;;;;;;;;;;4909734;29;20036;-75
2023/12/20 04:12:05;;;;;;;6.88;2.42;;;;;;;;;;4907352;29;20038;-74
2023/12/20 04:14:33;;;;;;;6.00;2.08;;;;;;;;;;4908981;29;20117;-75
2023/12/20 04:17:00;;;;;;;6.18;2.30;;;;;;;;;;4911144;29;20032;-75
2023/12/20 04:19:28;;;;;;;6.53;2.38;;;;;;;;;;4893933;29;20548;-75
2023/12/20 04:21:55;;;;;;;7.32;2.30;;;;;;;;;;4907608;29;20743;-75
2023/12/20 04:24:24;;;;;;;6.45;2.15;;;;;;;;;;4896269;29;20036;-75
2023/12/20 04:26:51;;;;;;;6.38;2.38;;;;;;;;;;4909681;29;20070;-75
2023/12/20 04:29:19;;;;;;;6.18;2.08;;;;;;;;;;4907397;29;20070;-74
2023/12/20 04:31:45;;;;;;;6.22;2.10;;;;;;;;;;4898176;29;20031;-75
2023/12/20 04:34:12;;;;;;;6.57;2.08;;;;;;;;;;4893081;29;20040;-75
2023/12/20 04:36:39;;;;;;;4.10;1.40;;;;;;;;;;4898292;29;20136;-74
2023/12/20 04:39:07;;;;;;;4.70;1.40;;;;;;;;;;4907766;29;20039;-75
2023/12/20 04:41:34;;;;;;;5.07;1.80;;;;;;;;;;4910099;29;20588;-74
2023/12/20 04:44:02;;;;;;;4.97;1.80;;;;;;;;;;4908144;29;20617;-74
2023/12/20 04:46:29;;;;;;;4.97;1.77;;;;;;;;;;4893510;29;20067;-75
2023/12/20 04:48:55;;;;;;;5.60;1.88;;;;;;;;;;4906678;29;20153;-75
2023/12/20 04:51:22;;;;;;;4.85;1.67;;;;;;;;;;4908291;29;20091;-75
2023/12/20 04:53:51;;;;;;;4.32;1.50;;;;;;;;;;4911392;29;20035;-75
2023/12/20 04:56:20;;;;;;;4.32;1.52;;;;;;;;;;4911262;29;20035;-76
2023/12/20 04:58:48;;;;;;;4.40;1.48;;;;;;;;;;4910528;29;20064;-75
2023/12/20 05:01:14;;;;;;;5.63;1.70;;;;;;;;;;4907737;29;20055;-75
2023/12/20 05:03:42;;;;;;;3.15;1.30;;;;;;;;;;4896035;29;20028;-75
2023/12/20 05:06:08;;;;;;;5.40;1.70;;;;;;;;;;4896008;29;20059;-74
2023/12/20 05:08:35;;;;;;;7.32;2.28;;;;;;;;;;4910767;29;20071;-75
2023/12/20 05:11:03;;;;;;;4.97;1.60;;;;;;;;;;4909865;29;20036;-75
2023/12/20 05:13:29;;;;;;;4.30;1.63;;;;;;;;;;4896681;29;20146;-75
2023/12/20 05:15:55;;;;;;;5.45;2.00;;;;;;;;;;4907414;29;20036;-75
2023/12/20 05:18:23;;;;;;;5.47;1.80;;;;;;;;;;4905825;29;20857;-74
2023/12/20 05:20:50;;;;;;;5.65;1.77;;;;;;;;;;4892040;29;20104;-75
2023/12/20 05:23:17;;;;;;;7.07;2.10;;;;;;;;;;4890892;29;20553;-75
2023/12/20 05:25:44;;;;;;;5.22;1.77;;;;;;;;;;4909099;29;20056;-75
2023/12/20 05:28:11;;;;;;;6.68;2.00;;;;;;;;;;4909441;29;20024;-75
2023/12/20 05:30:40;;;;;;;6.50;1.67;;;;;;;;;;4908816;29;20877;-75
2023/12/20 05:33:06;;;;;;;6.93;1.90;;;;;;;;;;4906637;29;20040;-75
2023/12/20 05:35:34;;;;;;;9.85;2.42;;;;;;;;;;4913500;29;20071;-75
2023/12/20 05:38:02;;;;;;;9.45;2.78;;;;;;;;;;4896407;29;20430;-75
2023/12/20 05:40:28;;;;;;;9.95;2.78;;;;;;;;;;4906831;29;20043;-75
2023/12/20 05:42:55;;;;;;;7.95;2.78;;;;;;;;;;4894453;29;20032;-75
2023/12/20 05:45:21;;;;;;;6.78;2.13;;;;;;;;;;4892037;29;20123;-74
2023/12/20 05:47:47;;;;;;;9.85;2.20;;;;;;;;;;4894717;29;20035;-74
2023/12/20 05:50:13;;;;;;;6.20;2.00;;;;;;;;;;4889877;29;20059;-75
2023/12/20 05:52:40;;;;;;;6.05;2.13;;;;;;;;;;4897022;29;20036;-74
2023/12/20 05:55:07;;;;;;;7.35;1.80;;;;;;;;;;4888874;29;20028;-77
2023/12/20 05:57:34;;;;;;;5.85;1.83;;;;;;;;;;4897370;29;20123;-74
2023/12/20 06:00:01;;;;;;;8.02;2.88;;;;;;;;;;4909735;29;20032;-75
2023/12/20 06:02:27;;;;;;;8.48;2.92;;;;;;;;;;4891380;29;20167;-75
2023/12/20 06:04:55;;;;;;;8.63;3.33;;;;;;;;;;4893637;29;20555;-75
2023/12/20 06:07:22;;;;;;;8.20;2.60;;;;;;;;;;4907437;29;20031;-77
2023/12/20 06:09:50;;;;;;;8.93;2.85;;;;;;;;;;4891403;29;20531;-77
2023/12/20 06:12:18;;;;;;;10.13;2.92;;;;;;;;;;4905967;29;20035;-74
2023/12/20 06:14:44;;;;;;;7.13;2.38;;;;;;;;;;4911701;29;20850;-77
2023/12/20 06:17:12;;;;;;;13.73;5.45;;;;;;;;;;4909055;29;20067;-77
2023/12/20 06:19:39;;;;;;;11.25;4.90;;;;;;;;;;4906529;29;20042;-75
2023/12/20 06:22:05;;;;;;;10.27;4.07;;;;;;;;;;4907271;29;20016;-77
2023/12/20 06:24:34;;;;;;;9.65;3.50;;;;;;;;;;4909617;29;20035;-76
2023/12/20 06:27:01;;;;;;;8.77;3.38;;;;;;;;;;4905343;29;20027;-76
2023/12/20 06:29:28;;;;;;;11.23;3.30;;;;;;;;;;4892048;29;20035;-76
2023/12/20 06:31:56;;;;;;;9.35;3.50;;;;;;;;;;4894043;29;20055;-76
2023/12/20 06:34:23;;;;;;;8.55;3.50;;;;;;;;;;4907991;29;20090;-77
2023/12/20 06:36:50;;;;;;;7.88;3.35;;;;;;;;;;4894758;29;20055;-75
2023/12/20 06:39:16;;;;;;;8.57;3.35;;;;;;;;;;4888119;29;20024;-76
2023/12/20 06:41:44;;;;;;;7.97;3.00;;;;;;;;;;4912851;29;20067;-76
2023/12/20 06:44:12;;;;;;;10.60;2.97;;;;;;;;;;4890075;29;20028;-76
2023/12/20 06:46:40;;;;;;;6.88;2.53;;;;;;;;;;4913307;29;20635;-75
2023/12/20 06:49:06;;;;;;;7.00;2.67;;;;;;;;;;4911390;29;20379;-75
2023/12/20 06:51:33;;;;;;;7.18;2.70;;;;;;;;;;4911652;29;20055;-75
2023/12/20 06:54:00;;;;;;;8.65;2.70;;;;;;;;;;4896485;29;20036;-75
2023/12/20 06:56:28;;;;;;;9.15;4.07;;;;;;;;;;4892601;29;20045;-75
2023/12/20 06:58:55;;;;;;;11.05;5.28;;;;;;;;;;4912286;29;20035;-76
2023/12/20 07:01:22;;;;;;;14.13;5.97;;;;;;;;;;4910181;29;20052;-77
2023/12/20 07:03:50;;;;;;;11.75;5.15;;;;;;;;;;4879701;29;20624;-75
2023/12/20 07:06:16;;;;;;;13.88;5.40;;;;;;;;;;4895763;29;20556;-77
2023/12/20 07:08:45;;;;;;;11.50;5.70;;;;;;;;;;4908324;29;20197;-77
2023/12/20 07:11:12;;;;;;;10.25;4.43;;;;;;;;;;4906208;29;20482;-74
2023/12/20 07:13:39;;;;;;;12.85;5.05;;;;;;;;;;4913953;28;20095;-77
2023/12/20 07:16:08;;;;;;;10.32;4.43;;;;;;;;;;4895798;29;20034;-76
2023/12/20 07:18:35;;;;;;;10.07;3.58;;;;;;;;;;4900275;29;20036;-76
2023/12/20 07:21:03;;;;;;;8.85;3.53;;;;;;;;;;4910909;29;20795;-76
2023/12/20 07:23:29;;;;;;;8.20;3.08;;;;;;;;;;4910968;29;20684;-78
2023/12/20 07:25:56;;;;;;;9.13;3.22;;;;;;;;;;4911513;29;20151;-77
2023/12/20 07:28:24;;;;;;;7.97;3.00;;;;;;;;;;4909140;29;20083;-76
2023/12/20 07:30:52;;;;;;;11.52;3.40;;;;;;;;;;4897518;29;20510;-77
2023/12/20 07:33:21;;;;;;;8.60;3.45;;;;;;;;;;4911157;29;20541;-77
2023/12/20 07:35:48;;;;;;;9.55;3.50;;;;;;;;;;4895414;29;20150;-77
2023/12/20 07:38:14;;;;;;;11.32;4.05;;;;;;;;;;4893136;29;20152;-75
2023/12/20 07:40:41;;;;;;;9.10;3.40;;;;;;;;;;4894166;29;20032;-76
2023/12/20 07:43:09;;;;;;;10.80;3.08;;;;;;;;;;4897375;29;20053;-77
2023/12/20 07:45:37;;;;;;;8.13;3.10;;;;;;;;;;4912266;29;20039;-74
2023/12/20 07:48:06;;;;;;;9.00;2.80;;;;;;;;;;4896218;29;20039;-77
2023/12/20 07:50:33;;;;;;;8.13;3.15;;;;;;;;;;4907069;29;20462;-76
2023/12/20 07:53:03;;;;;;;7.93;2.90;;;;;;;;;;4896235;29;20023;-77
2023/12/20 07:55:30;;;;;;;8.45;2.88;;;;;;;;;;4908391;29;20051;-76
2023/12/20 07:57:58;;;;;;;9.07;2.75;;;;;;;;;;4908696;29;20166;-76
2023/12/20 08:00:24;;;;;;;9.88;3.08;;;;;;;;;;4894737;29;21184;-77
2023/12/20 08:02:50;;;;;;;10.90;3.80;;;;;;;;;;4897623;29;20028;-76
2023/12/20 08:05:18;;;;;;;8.45;3.13;;;;;;;;;;4903331;29;20121;-76
2023/12/20 08:07:46;;;;;;;7.22;2.70;;;;;;;;;;4906648;29;20035;-76
2023/12/20 08:10:14;;;;;;;8.65;2.70;;;;;;;;;;4894256;29;20059;-76
2023/12/20 08:12:40;;;;;;;7.80;2.60;;;;;;;;;;4909311;29;20040;-76
2023/12/20 08:15:08;;;;;;;8.27;3.10;;;;;;;;;;4897299;29;20027;-76
2023/12/20 08:17:35;;;;;;;6.63;2.72;;;;;;;;;;4910285;29;20054;-76
2023/12/20 08:20:02;;;;;;;8.50;3.08;;;;;;;;;;4905352;29;20026;-77
2023/12/20 08:22:28;;;;;;;9.80;3.40;;;;;;;;;;4907663;29;20035;-78
2023/12/20 08:24:55;;;;;;;10.13;3.40;;;;;;;;;;4907567;29;20582;-77
2023/12/20 08:27:22;;;;;;;12.38;4.43;;;;;;;;;;4890220;29;20032;-75
2023/12/20 08:29:50;;;;;;;10.38;4.03;;;;;;;;;;4912508;29;20023;-75
2023/12/20 08:32:16;;;;;;;16.27;4.88;;;;;;;;;;4881021;29;20048;-76
2023/12/20 08:34:44;;;;;;;13.10;5.93;;;;;;;;;;4891242;29;20040;-76
2023/12/20 08:37:14;;;;;;;12.55;5.60;;;;;;;;;;4888378;29;20111;-76
2023/12/20 08:39:43;;;;;;;11.10;4.55;;;;;;;;;;4892261;29;20039;-76
2023/12/20 08:42:11;;;;;;;9.25;3.88;;;;;;;;;;4886129;29;20990;-75
2023/12/20 08:44:37;;;;;;;10.93;3.70;;;;;;;;;;4889847;29;20032;-75
2023/12/20 08:47:04;;;;;;;;;;;;;;;;;;4867902;29;20039;-78
2023/12/20 08:49:32;;;;;;;10.32;3.63;;;;;;;;;;4887052;29;19917;-75
2023/12/20 08:51:59;;;;;;;11.40;3.40;;;;;;;;;;4888060;29;20203;-76
2023/12/20 08:54:26;;;;;;;9.60;3.42;;;;;;;;;;4869615;29;20246;-75
2023/12/20 08:56:52;;;;;;;9.27;3.20;;;;;;;;;;4883869;29;20028;-75
2023/12/20 08:59:20;;;;;;;;;;;;;;;;;;4870570;29;20194;-75
2023/12/20 09:01:47;;;;;;;;;;;;;;;;;;4872133;29;19970;-75
2023/12/20 09:04:15;;;;;;;9.27;3.75;;;;;;;;;;4885493;29;19954;-78
2023/12/20 09:06:41;;;;;;;10.13;3.65;;;;;;;;;;4886413;29;20063;-76
2023/12/20 09:09:10;;;;;;;;;;;;;;;;;;4871727;29;20028;-77
2023/12/20 09:11:36;;;;;;;8.32;3.10;;;;;;;;;;4873818;29;20370;-78
2023/12/20 09:14:03;;;;;;;10.20;4.53;;;;;;;;;;4872980;29;20024;-77
2023/12/20 09:16:31;;;;;;;13.07;4.80;;;;;;;;;;4885479;29;20030;-75
2023/12/20 09:18:58;;;;;;;10.88;5.07;;;;;;;;;;4889788;29;20028;-74
2023/12/20 09:21:25;;;;;;;13.20;5.40;;;;;;;;;;4884244;29;20910;-76
2023/12/20 09:23:51;;;;;;;12.73;6.03;;;;;;;;;;4873705;29;20024;-76
2023/12/20 09:26:18;;;;;;;;;;;;;;;;;;4870727;29;20381;-76
2023/12/20 09:28:45;;;;;;;21.98;12.15;;;;;;;;;;4873890;29;20452;-75
2023/12/20 09:31:13;;;;;;;21.73;13.43;;;;;;;;;;4882165;29;21115;-76
2023/12/20 09:33:41;;;;;;;19.08;10.23;;;;;;;;;;4871772;29;20539;-75
2023/12/20 09:36:08;;;;;;;14.05;7.70;;;;;;;;;;4885607;29;20036;-75
2023/12/20 09:38:36;;;;;;;12.65;5.20;;;;;;;;;;4874498;29;20412;-76
2023/12/20 09:41:05;;;;;;;13.18;5.57;;;;;;;;;;4873256;29;21143;-76
2023/12/20 09:43:36;;;;;;;14.75;6.32;;;;;;;;;;4882684;29;20040;-76
2023/12/20 09:46:05;;;;;;;15.65;8.30;;;;;;;;;;4885946;29;20029;-75
2023/12/20 09:48:33;;;;;;;17.63;10.13;;;;;;;;;;4886697;29;20104;-76
2023/12/20 09:51:02;;;;;;;19.08;8.75;;;;;;;;;;4873747;29;20032;-76
2023/12/20 09:53:30;;;;;;;18.65;9.80;;;;;;;;;;4884447;29;20043;-75
2023/12/20 09:56:00;;;;;;;15.57;7.63;;;;;;;;;;4874903;29;20033;-75
2023/12/20 09:58:28;;;;;;;15.90;6.93;;;;;;;;;;4883783;29;20438;-76
2023/12/20 10:00:58;;;;;;;14.85;5.47;;;;;;;;;;4888883;29;20071;-75
2023/12/20 10:03:27;;;;;;;12.02;4.57;;;;;;;;;;4884136;29;20735;-77
2023/12/20 10:05:55;;;;;;;16.42;4.63;;;;;;;;;;4889530;29;20502;-77
2023/12/20 10:08:22;;;;;;;14.80;4.80;;;;;;;;;;4883436;29;20111;-76
2023/12/20 10:10:49;;;;;;;15.70;5.13;;;;;;;;;;4885314;29;20611;-77
2023/12/20 10:13:16;;;;;;;14.77;5.35;;;;;;;;;;4883333;29;20490;-76
2023/12/20 10:15:43;;;;;;;13.73;5.70;;;;;;;;;;4888701;29;20412;-77
2023/12/20 10:18:10;;;;;;;14.40;5.68;;;;;;;;;;4883456;29;20028;-77
2023/12/20 10:20:37;;;;;;;15.77;6.15;;;;;;;;;;4876890;29;20032;-78
2023/12/20 10:23:05;;;;;;;13.80;6.53;;;;;;;;;;4877789;29;20103;-76
2023/12/20 10:25:32;;;;;;;12.80;6.50;;;;;;;;;;4876948;29;20189;-77
2023/12/20 10:28:18;;;;;;;12.88;6.05;;;;;;;;;;4879132;29;20547;-77
2023/12/20 10:30:46;;;;;;;12.95;5.13;;;;;;;;;;4891947;29;20032;-77
2023/12/20 10:33:12;;;;;;;13.43;4.70;;;;;;;;;;4886361;29;20049;-77
2023/12/20 10:35:41;;;;;;;13.07;4.35;;;;;;;;;;4891007;29;20832;-76
2023/12/20 10:38:07;;;;;;;12.43;6.13;;;;;;;;;;4886626;29;20048;-76
2023/12/20 10:40:38;;;;;;;11.70;4.20;;;;;;;;;;4890262;29;20044;-76
2023/12/20 10:43:05;;;;;;;10.38;3.28;;;;;;;;;;4890056;29;20063;-76
2023/12/20 10:45:33;;;;;;;13.85;4.80;;;;;;;;;;4887694;29;20054;-76
2023/12/20 10:48:02;;;;;;;13.18;3.50;;;;;;;;;;4890377;29;20055;-76
2023/12/20 10:50:29;;;;;;;10.80;3.70;;;;;;;;;;4874668;29;20028;-77
2023/12/20 10:52:56;;;;;;;12.52;4.90;;;;;;;;;;4888500;29;20043;-76
2023/12/20 10:55:25;;;;;;;15.25;5.80;;;;;;;;;;4870316;29;20039;-77
2023/12/20 10:57:52;;;;;;;15.15;6.18;;;;;;;;;;4888986;29;20032;-75
2023/12/20 11:00:20;;;;;;;16.50;7.32;;;;;;;;;;4870839;29;21196;-77
2023/12/20 11:02:51;;;;;;;15.02;6.35;;;;;;;;;;4875610;29;20037;-77
2023/12/20 11:05:23;;;;;;;12.55;5.32;;;;;;;;;;4884473;29;20515;-77
2023/12/20 11:07:57;;;;;;;12.70;5.40;;;;;;;;;;4883861;29;20545;-77
2023/12/20 11:10:27;;;;;;;11.25;5.40;;;;;;;;;;4872652;29;20729;-77
2023/12/20 11:12:55;;;;;;;17.30;5.13;;;;;;;;;;4887990;29;20064;-78
2023/12/20 11:15:22;;;;;;;13.75;5.75;;;;;;;;;;4869119;29;20036;-76
2023/12/20 11:17:59;;;;;;;14.63;6.68;;;;;;;;;;4874315;29;20546;-76
2023/12/20 11:20:36;;;;;;;14.05;5.95;;;;;;;;;;4855895;29;20358;-77
2023/12/20 11:23:04;;;;;;;13.90;6.57;;;;;;;;;;4871459;29;20123;-76
2023/12/20 11:25:35;;;;;;;12.95;4.90;;;;;;;;;;4855430;29;20127;-76
2023/12/20 11:28:09;;;;;;;9.57;3.47;;;;;;;;;;4871941;29;20094;-76
2023/12/20 11:31:02;;;;;;;7.10;2.70;;;;;;;;;;4887545;29;20028;-76
2023/12/20 11:33:48;;;;;;;12.68;3.30;;;;;;;;;;4867564;29;20211;-76
2023/12/20 11:36:16;;;;;;;11.90;3.40;;;;;;;;;;4866637;29;20548;-76
2023/12/20 11:38:57;;;;;;;10.82;4.00;;;;;;;;;;4854063;29;20052;-76
2023/12/20 11:41:24;;;;;;;9.90;4.38;;;;;;;;;;4850097;29;20437;-76
2023/12/20 11:43:54;;;;;;;11.23;3.92;;;;;;;;;;4854770;29;20028;-76
2023/12/20 11:46:23;;;;;;;8.60;3.22;;;;;;;;;;4867933;29;20116;-76
2023/12/20 11:48:51;;;;;;;10.02;3.38;;;;;;;;;;4867167;29;20033;-76
2023/12/20 11:51:18;;;;;;;10.68;3.30;;;;;;;;;;4866255;29;20040;-75
2023/12/20 11:53:45;;;;;;;7.88;2.80;;;;;;;;;;4852554;29;20037;-75
2023/12/20 11:56:13;;;;;;;8.25;2.50;;;;;;;;;;4851619;29;20020;-76
2023/12/20 11:58:39;;;;;;;9.45;3.60;;;;;;;;;;4869257;29;20040;-76
2023/12/20 12:01:07;;;;;;;9.73;3.42;;;;;;;;;;4854236;29;20025;-75
2023/12/20 12:03:34;;;;;;;9.05;3.60;;;;;;;;;;4869586;29;20172;-77
2023/12/20 12:06:07;;;;;;;8.02;3.30;;;;;;;;;;4868081;29;20586;-76
2023/12/20 12:08:37;;;;;;;9.57;3.90;;;;;;;;;;4870546;29;20028;-75
2023/12/20 12:11:04;;;;;;;8.38;3.42;;;;;;;;;;4867340;29;20139;-75
2023/12/20 12:13:32;;;;;;;9.38;3.95;;;;;;;;;;4841916;29;20047;-75
2023/12/20 12:16:00;;;;;;;10.82;4.00;;;;;;;;;;4870954;29;20143;-75
2023/12/20 12:18:26;;;;;;;12.13;5.20;;;;;;;;;;4848230;29;20136;-75
2023/12/20 12:21:00;;;;;;;9.85;4.07;;;;;;;;;;4871500;29;20096;-75
2023/12/20 12:23:27;;;;;;;8.63;3.15;;;;;;;;;;4863771;29;20041;-75
2023/12/20 12:25:55;;;;;;;9.07;3.30;;;;;;;;;;4870129;29;20048;-76
2023/12/20 12:28:22;;;;;;;9.27;3.80;;;;;;;;;;4851644;29;20037;-76
2023/12/20 12:30:58;;;;;;;9.60;3.33;;;;;;;;;;4853722;29;20063;-76
2023/12/20 12:33:26;;;;;;;7.90;2.70;;;;;;;;;;4880739;29;20139;-76
2023/12/20 12:35:53;;;;;;;10.25;3.33;;;;;;;;;;4871152;29;20032;-77
2023/12/20 12:38:23;;;;;;;7.10;2.47;;;;;;;;;;4869706;29;20040;-76
2023/12/20 12:40:53;;;;;;;7.47;2.60;;;;;;;;;;4875054;29;20036;-74
2023/12/20 12:43:22;;;;;;;8.27;3.10;;;;;;;;;;4883433;29;20115;-74
2023/12/20 12:45:51;;;;;;;9.48;3.08;;;;;;;;;;4879714;29;20040;-74
2023/12/20 12:48:19;;;;;;;9.93;3.13;;;;;;;;;;4866659;29;20034;-75
2023/12/20 12:50:47;;;;;;;11.45;3.30;;;;;;;;;;4871665;29;20143;-73
2023/12/20 12:53:14;;;;;;;8.18;3.30;;;;;;;;;;4870429;29;20075;-76
2023/12/20 12:55:41;;;;;;;12.55;3.17;;;;;;;;;;4882426;29;20048;-78
2023/12/20 12:58:09;;;;;;;8.05;2.80;;;;;;;;;;4881482;29;20843;-75
2023/12/20 13:00:36;;;;;;;8.55;2.88;;;;;;;;;;4872363;29;20136;-76
2023/12/20 13:03:07;;;;;;;7.60;2.28;;;;;;;;;;4871808;29;20032;-78
2023/12/20 13:05:35;;;;;;;8.00;2.80;;;;;;;;;;4885851;29;21570;-79
2023/12/20 13:08:04;;;;;;;8.02;2.60;;;;;;;;;;4887083;29;20127;-77
2023/12/20 13:10:31;;;;;;;7.28;2.60;;;;;;;;;;4885921;29;20614;-77
2023/12/20 13:12:58;;;;;;;8.57;2.50;;;;;;;;;;4873149;29;20024;-78
2023/12/20 13:15:25;;;;;;;8.68;2.40;;;;;;;;;;4867321;29;20048;-77
2023/12/20 13:17:53;;;;;;;7.20;2.33;;;;;;;;;;4883175;29;20064;-78
2023/12/20 13:20:20;;;;;;;7.07;2.45;;;;;;;;;;4884011;29;20055;-77
2023/12/20 13:22:48;;;;;;;9.57;3.08;;;;;;;;;;4884679;29;20094;-76
2023/12/20 13:25:16;;;;;;;8.68;2.97;;;;;;;;;;4882702;29;20064;-77
2023/12/20 13:27:45;;;;;;;9.75;3.35;;;;;;;;;;4870896;29;20024;-77
2023/12/20 13:30:13;;;;;;;7.97;3.00;;;;;;;;;;4881779;29;20046;-77
2023/12/20 13:32:41;;;;;;;8.25;3.42;;;;;;;;;;4871170;29;20135;-75
2023/12/20 13:35:08;;;;;;;8.98;3.20;;;;;;;;;;4871557;29;20456;-74
2023/12/20 13:37:36;;;;;;;9.57;2.67;;;;;;;;;;4870730;29;20874;-76
2023/12/20 13:40:04;;;;;;;8.10;2.40;;;;;;;;;;4872893;29;20036;-77
2023/12/20 13:42:30;;;;;;;8.75;2.35;;;;;;;;;;4871350;29;20035;-79
2023/12/20 13:44:56;;;;;;;8.85;2.70;;;;;;;;;;4869955;29;20040;-78
2023/12/20 13:47:23;;;;;;;41.53;37.25;;;;;;;;;;4866360;29;20052;-78
2023/12/20 13:49:50;;;;;;;48.67;43.00;;;;;;;;;;4869365;29;20124;-77
2023/12/20 13:52:18;;;;;;;38.08;34.28;;;;;;;;;;4868835;29;20073;-76
2023/12/20 13:54:47;;;;;;;11.10;4.72;;;;;;;;;;4872613;29;20774;-78
2023/12/20 13:57:15;;;;;;;10.02;4.25;;;;;;;;;;4871676;29;20025;-78
2023/12/20 13:59:42;;;;;;;7.95;3.20;;;;;;;;;;4880755;29;20037;-78
2023/12/20 14:02:11;;;;;;;8.38;3.03;;;;;;;;;;4873028;29;20068;-77
2023/12/20 14:04:39;;;;;;;11.68;3.78;;;;;;;;;;4879615;29;20061;-76
2023/12/20 14:07:07;;;;;;;8.10;2.60;;;;;;;;;;4866336;29;20048;-78
2023/12/20 14:09:35;;;;;;;10.35;4.35;;;;;;;;;;4874313;29;20108;-79
2023/12/20 14:12:03;;;;;;;8.23;3.55;;;;;;;;;;4876169;29;20032;-78
2023/12/20 14:14:30;;;;;;;11.65;4.93;;;;;;;;;;4872378;29;20445;-78
2023/12/20 14:16:56;;;;;;;11.10;5.07;;;;;;;;;;4876898;29;20036;-77
2023/12/20 14:19:23;;;;;;;9.07;2.83;;;;;;;;;;4875770;29;20819;-78
2023/12/20 14:21:50;;;;;;;8.98;2.13;;;;;;;;;;4871769;29;20041;-78
2023/12/20 14:24:18;;;;;;;11.93;5.60;;;;;;;;;;4868900;29;20135;-77
2023/12/20 14:26:46;;;;;;;8.68;2.80;;;;;;;;;;4889070;29;20028;-77
2023/12/20 14:29:13;;;;;;;12.55;3.40;;;;;;;;;;4872843;29;20044;-77
2023/12/20 14:31:40;;;;;;;20.38;13.63;;;;;;;;;;4877922;29;20056;-78
2023/12/20 14:34:08;;;;;;;12.60;5.15;;;;;;;;;;4886770;29;20468;-77
2023/12/20 14:36:35;;;;;;;11.40;3.67;;;;;;;;;;4888560;29;20034;-75
2023/12/20 14:39:02;;;;;;;11.75;5.15;;;;;;;;;;4889322;29;20276;-75
2023/12/20 14:41:28;;;;;;;15.82;9.75;;;;;;;;;;4888696;29;20043;-76